sensor_id;sensor_type;location;lat;lon;timestamp;P1;durP1;ratioP1;P2;durP2;ratioP2
71253;SDS011;59019;47.638;18.966;2023-07-20T00:00:03;6.72;;;2.80;;
71253;SDS011;59019;47.638;18.966;2023-07-20T00:02:50;7.63;;;3.00;;
71253;SDS011;59019;47.638;18.966;2023-07-20T00:05:36;7.25;;;2.90;;
71253;SDS011;59019;47.638;18.966;2023-07-20T00:08:22;7.30;;;3.20;;
71253;SDS011;59019;47.638;18.966;2023-07-20T00:11:08;8.05;;;2.90;;
71253;SDS011;59019;47.638;18.966;2023-07-20T00:13:54;7.07;;;2.95;;
71253;SDS011;59019;47.638;18.966;2023-07-20T00:16:40;8.32;;;3.00;;
71253;SDS011;59019;47.638;18.966;2023-07-20T00:19:26;7.65;;;3.10;;
71253;SDS011;59019;47.638;18.966;2023-07-20T00:22:13;6.80;;;2.93;;
71253;SDS011;59019;47.638;18.966;2023-07-20T00:24:59;6.75;;;3.13;;
71253;SDS011;59019;47.638;18.966;2023-07-20T00:27:44;7.80;;;3.30;;
71253;SDS011;59019;47.638;18.966;2023-07-20T00:30:30;8.23;;;3.37;;
71253;SDS011;59019;47.638;18.966;2023-07-20T00:33:17;7.37;;;3.07;;
71253;SDS011;59019;47.638;18.966;2023-07-20T00:36:03;7.50;;;3.25;;
71253;SDS011;59019;47.638;18.966;2023-07-20T00:38:49;7.82;;;2.90;;
71253;SDS011;59019;47.638;18.966;2023-07-20T00:41:35;8.10;;;3.07;;
71253;SDS011;59019;47.638;18.966;2023-07-20T00:44:21;7.78;;;3.33;;
71253;SDS011;59019;47.638;18.966;2023-07-20T00:47:06;7.20;;;3.20;;
71253;SDS011;59019;47.638;18.966;2023-07-20T00:49:53;7.20;;;3.03;;
71253;SDS011;59019;47.638;18.966;2023-07-20T00:52:40;8.35;;;3.28;;
71253;SDS011;59019;47.638;18.966;2023-07-20T00:55:27;7.70;;;3.13;;
71253;SDS011;59019;47.638;18.966;2023-07-20T00:58:13;7.10;;;2.90;;
71253;SDS011;59019;47.638;18.966;2023-07-20T01:00:59;8.68;;;3.10;;
71253;SDS011;59019;47.638;18.966;2023-07-20T01:03:45;7.72;;;3.28;;
71253;SDS011;59019;47.638;18.966;2023-07-20T01:06:36;6.78;;;2.90;;
71253;SDS011;59019;47.638;18.966;2023-07-20T01:09:28;7.50;;;3.20;;
71253;SDS011;59019;47.638;18.966;2023-07-20T01:12:26;7.78;;;3.03;;
71253;SDS011;59019;47.638;18.966;2023-07-20T01:15:15;7.65;;;2.90;;
71253;SDS011;59019;47.638;18.966;2023-07-20T01:18:01;7.97;;;2.90;;
71253;SDS011;59019;47.638;18.966;2023-07-20T01:20:49;8.43;;;3.17;;
71253;SDS011;59019;47.638;18.966;2023-07-20T01:33:26;7.57;;;3.30;;
71253;SDS011;59019;47.638;18.966;2023-07-20T01:36:14;9.95;;;3.30;;
71253;SDS011;59019;47.638;18.966;2023-07-20T01:39:03;8.57;;;3.08;;
71253;SDS011;59019;47.638;18.966;2023-07-20T01:41:50;8.13;;;3.13;;
71253;SDS011;59019;47.638;18.966;2023-07-20T01:44:36;6.70;;;3.10;;
71253;SDS011;59019;47.638;18.966;2023-07-20T01:47:22;7.23;;;2.97;;
71253;SDS011;59019;47.638;18.966;2023-07-20T01:50:08;6.90;;;2.97;;
71253;SDS011;59019;47.638;18.966;2023-07-20T01:52:55;7.47;;;3.10;;
71253;SDS011;59019;47.638;18.966;2023-07-20T01:55:40;6.47;;;2.83;;
71253;SDS011;59019;47.638;18.966;2023-07-20T01:58:26;7.45;;;2.80;;
71253;SDS011;59019;47.638;18.966;2023-07-20T02:01:12;7.03;;;2.77;;
71253;SDS011;59019;47.638;18.966;2023-07-20T02:03:58;7.85;;;3.10;;
71253;SDS011;59019;47.638;18.966;2023-07-20T02:06:44;7.43;;;2.90;;
71253;SDS011;59019;47.638;18.966;2023-07-20T02:09:29;6.85;;;3.03;;
71253;SDS011;59019;47.638;18.966;2023-07-20T02:12:15;6.95;;;3.00;;
71253;SDS011;59019;47.638;18.966;2023-07-20T02:15:01;7.05;;;3.10;;
71253;SDS011;59019;47.638;18.966;2023-07-20T02:17:48;9.05;;;3.10;;
71253;SDS011;59019;47.638;18.966;2023-07-20T02:20:34;6.70;;;2.83;;
71253;SDS011;59019;47.638;18.966;2023-07-20T02:23:20;8.20;;;3.20;;
71253;SDS011;59019;47.638;18.966;2023-07-20T02:26:06;9.90;;;3.35;;
71253;SDS011;59019;47.638;18.966;2023-07-20T02:28:52;7.07;;;2.90;;
71253;SDS011;59019;47.638;18.966;2023-07-20T02:31:38;7.50;;;2.78;;
71253;SDS011;59019;47.638;18.966;2023-07-20T02:34:24;7.97;;;3.10;;
71253;SDS011;59019;47.638;18.966;2023-07-20T02:37:10;6.25;;;3.17;;
71253;SDS011;59019;47.638;18.966;2023-07-20T02:39:58;7.23;;;3.23;;
71253;SDS011;59019;47.638;18.966;2023-07-20T02:42:44;7.50;;;3.10;;
71253;SDS011;59019;47.638;18.966;2023-07-20T02:45:29;6.70;;;3.10;;
71253;SDS011;59019;47.638;18.966;2023-07-20T02:48:15;9.40;;;3.10;;
71253;SDS011;59019;47.638;18.966;2023-07-20T02:51:01;10.30;;;4.63;;
71253;SDS011;59019;47.638;18.966;2023-07-20T02:53:47;6.57;;;3.35;;
71253;SDS011;59019;47.638;18.966;2023-07-20T02:56:33;8.07;;;3.20;;
71253;SDS011;59019;47.638;18.966;2023-07-20T02:59:19;10.60;;;3.72;;
71253;SDS011;59019;47.638;18.966;2023-07-20T03:02:05;8.27;;;3.10;;
71253;SDS011;59019;47.638;18.966;2023-07-20T03:04:51;8.27;;;3.03;;
71253;SDS011;59019;47.638;18.966;2023-07-20T03:07:36;7.50;;;2.92;;
71253;SDS011;59019;47.638;18.966;2023-07-20T03:10:23;7.55;;;3.15;;
71253;SDS011;59019;47.638;18.966;2023-07-20T03:13:08;6.03;;;2.92;;
71253;SDS011;59019;47.638;18.966;2023-07-20T03:15:54;6.80;;;3.00;;
71253;SDS011;59019;47.638;18.966;2023-07-20T03:18:40;7.70;;;2.92;;
71253;SDS011;59019;47.638;18.966;2023-07-20T03:21:26;7.50;;;3.08;;
71253;SDS011;59019;47.638;18.966;2023-07-20T03:24:12;6.85;;;2.80;;
71253;SDS011;59019;47.638;18.966;2023-07-20T03:26:58;7.70;;;3.10;;
71253;SDS011;59019;47.638;18.966;2023-07-20T03:29:45;7.80;;;3.10;;
71253;SDS011;59019;47.638;18.966;2023-07-20T03:32:31;6.55;;;3.10;;
71253;SDS011;59019;47.638;18.966;2023-07-20T03:35:16;8.02;;;2.97;;
71253;SDS011;59019;47.638;18.966;2023-07-20T03:38:02;7.47;;;3.00;;
71253;SDS011;59019;47.638;18.966;2023-07-20T03:40:50;7.28;;;2.97;;
71253;SDS011;59019;47.638;18.966;2023-07-20T03:43:37;6.95;;;2.88;;
71253;SDS011;59019;47.638;18.966;2023-07-20T03:46:23;7.27;;;3.10;;
71253;SDS011;59019;47.638;18.966;2023-07-20T03:49:08;6.88;;;3.15;;
71253;SDS011;59019;47.638;18.966;2023-07-20T03:51:55;9.55;;;3.40;;
71253;SDS011;59019;47.638;18.966;2023-07-20T03:54:41;6.82;;;3.10;;
71253;SDS011;59019;47.638;18.966;2023-07-20T03:57:27;7.25;;;2.95;;
71253;SDS011;59019;47.638;18.966;2023-07-20T04:00:13;7.13;;;3.00;;
71253;SDS011;59019;47.638;18.966;2023-07-20T04:03:00;6.63;;;3.30;;
71253;SDS011;59019;47.638;18.966;2023-07-20T04:05:46;6.60;;;3.00;;
71253;SDS011;59019;47.638;18.966;2023-07-20T04:08:33;6.95;;;2.97;;
71253;SDS011;59019;47.638;18.966;2023-07-20T04:11:21;6.40;;;2.75;;
71253;SDS011;59019;47.638;18.966;2023-07-20T04:14:07;6.43;;;3.30;;
71253;SDS011;59019;47.638;18.966;2023-07-20T04:16:53;6.82;;;3.35;;
71253;SDS011;59019;47.638;18.966;2023-07-20T04:19:38;7.47;;;3.20;;
71253;SDS011;59019;47.638;18.966;2023-07-20T04:22:24;7.00;;;3.40;;
71253;SDS011;59019;47.638;18.966;2023-07-20T04:25:10;9.00;;;3.20;;
71253;SDS011;59019;47.638;18.966;2023-07-20T04:27:56;9.00;;;3.60;;
71253;SDS011;59019;47.638;18.966;2023-07-20T04:30:42;5.90;;;3.00;;
71253;SDS011;59019;47.638;18.966;2023-07-20T04:33:28;6.90;;;3.00;;
71253;SDS011;59019;47.638;18.966;2023-07-20T04:36:14;6.78;;;3.13;;
71253;SDS011;59019;47.638;18.966;2023-07-20T04:39:04;8.00;;;3.40;;
71253;SDS011;59019;47.638;18.966;2023-07-20T04:41:50;7.20;;;3.27;;
71253;SDS011;59019;47.638;18.966;2023-07-20T04:44:36;7.53;;;3.30;;
71253;SDS011;59019;47.638;18.966;2023-07-20T04:47:22;7.30;;;3.40;;
71253;SDS011;59019;47.638;18.966;2023-07-20T04:50:08;8.15;;;3.28;;
71253;SDS011;59019;47.638;18.966;2023-07-20T04:52:54;7.40;;;3.50;;
71253;SDS011;59019;47.638;18.966;2023-07-20T04:55:40;7.40;;;3.28;;
71253;SDS011;59019;47.638;18.966;2023-07-20T04:58:26;6.50;;;3.17;;
71253;SDS011;59019;47.638;18.966;2023-07-20T05:01:12;6.32;;;3.40;;
71253;SDS011;59019;47.638;18.966;2023-07-20T05:03:58;6.40;;;3.13;;
71253;SDS011;59019;47.638;18.966;2023-07-20T05:06:43;7.32;;;3.40;;
71253;SDS011;59019;47.638;18.966;2023-07-20T05:09:29;8.50;;;3.37;;
71253;SDS011;59019;47.638;18.966;2023-07-20T05:12:15;6.80;;;3.33;;
71253;SDS011;59019;47.638;18.966;2023-07-20T05:15:01;7.32;;;3.47;;
71253;SDS011;59019;47.638;18.966;2023-07-20T05:17:47;7.07;;;3.27;;
71253;SDS011;59019;47.638;18.966;2023-07-20T05:20:34;7.95;;;3.60;;
71253;SDS011;59019;47.638;18.966;2023-07-20T05:23:20;6.93;;;3.30;;
71253;SDS011;59019;47.638;18.966;2023-07-20T05:26:07;8.10;;;3.50;;
71253;SDS011;59019;47.638;18.966;2023-07-20T05:28:53;9.57;;;3.50;;
71253;SDS011;59019;47.638;18.966;2023-07-20T05:31:39;7.53;;;3.43;;
71253;SDS011;59019;47.638;18.966;2023-07-20T05:34:25;7.85;;;3.65;;
71253;SDS011;59019;47.638;18.966;2023-07-20T05:37:11;8.80;;;3.30;;
71253;SDS011;59019;47.638;18.966;2023-07-20T05:39:57;7.43;;;3.90;;
71253;SDS011;59019;47.638;18.966;2023-07-20T05:42:43;7.78;;;3.60;;
71253;SDS011;59019;47.638;18.966;2023-07-20T05:45:29;7.15;;;3.70;;
71253;SDS011;59019;47.638;18.966;2023-07-20T05:48:15;8.52;;;3.67;;
71253;SDS011;59019;47.638;18.966;2023-07-20T05:51:02;9.15;;;4.00;;
71253;SDS011;59019;47.638;18.966;2023-07-20T05:53:47;8.70;;;4.00;;
71253;SDS011;59019;47.638;18.966;2023-07-20T05:56:33;7.90;;;3.80;;
71253;SDS011;59019;47.638;18.966;2023-07-20T05:59:19;6.88;;;3.75;;
71253;SDS011;59019;47.638;18.966;2023-07-20T06:02:05;8.10;;;3.70;;
71253;SDS011;59019;47.638;18.966;2023-07-20T06:04:52;8.60;;;3.90;;
71253;SDS011;59019;47.638;18.966;2023-07-20T06:07:38;7.23;;;3.87;;
71253;SDS011;59019;47.638;18.966;2023-07-20T06:10:24;7.22;;;3.70;;
71253;SDS011;59019;47.638;18.966;2023-07-20T06:13:10;8.38;;;3.83;;
71253;SDS011;59019;47.638;18.966;2023-07-20T06:15:56;8.60;;;4.27;;
71253;SDS011;59019;47.638;18.966;2023-07-20T06:18:42;7.60;;;3.88;;
71253;SDS011;59019;47.638;18.966;2023-07-20T06:21:28;7.85;;;3.88;;
71253;SDS011;59019;47.638;18.966;2023-07-20T06:24:13;8.87;;;4.00;;
71253;SDS011;59019;47.638;18.966;2023-07-20T06:26:59;7.10;;;3.75;;
71253;SDS011;59019;47.638;18.966;2023-07-20T06:29:45;7.30;;;3.65;;
71253;SDS011;59019;47.638;18.966;2023-07-20T06:32:31;9.03;;;4.07;;
71253;SDS011;59019;47.638;18.966;2023-07-20T06:35:17;8.95;;;4.10;;
71253;SDS011;59019;47.638;18.966;2023-07-20T06:38:03;7.60;;;4.00;;
71253;SDS011;59019;47.638;18.966;2023-07-20T06:40:49;8.10;;;4.22;;
71253;SDS011;59019;47.638;18.966;2023-07-20T06:43:36;7.70;;;4.13;;
71253;SDS011;59019;47.638;18.966;2023-07-20T06:46:22;7.75;;;4.00;;
71253;SDS011;59019;47.638;18.966;2023-07-20T06:49:08;7.23;;;4.10;;
71253;SDS011;59019;47.638;18.966;2023-07-20T06:51:54;6.90;;;4.00;;
71253;SDS011;59019;47.638;18.966;2023-07-20T06:54:40;7.87;;;4.03;;
71253;SDS011;59019;47.638;18.966;2023-07-20T06:57:26;7.65;;;3.97;;
71253;SDS011;59019;47.638;18.966;2023-07-20T07:00:11;6.88;;;3.80;;
71253;SDS011;59019;47.638;18.966;2023-07-20T07:02:58;6.57;;;3.70;;
71253;SDS011;59019;47.638;18.966;2023-07-20T07:05:44;11.23;;;4.73;;
71253;SDS011;59019;47.638;18.966;2023-07-20T07:08:31;7.43;;;3.75;;
71253;SDS011;59019;47.638;18.966;2023-07-20T07:11:17;8.25;;;4.25;;
71253;SDS011;59019;47.638;18.966;2023-07-20T07:14:02;7.70;;;3.92;;
71253;SDS011;59019;47.638;18.966;2023-07-20T07:16:48;7.50;;;3.60;;
71253;SDS011;59019;47.638;18.966;2023-07-20T07:19:34;6.93;;;3.55;;
71253;SDS011;59019;47.638;18.966;2023-07-20T07:22:21;7.05;;;3.60;;
71253;SDS011;59019;47.638;18.966;2023-07-20T07:25:07;7.82;;;3.40;;
71253;SDS011;59019;47.638;18.966;2023-07-20T07:27:54;7.50;;;3.35;;
71253;SDS011;59019;47.638;18.966;2023-07-20T07:30:41;6.60;;;3.03;;
71253;SDS011;59019;47.638;18.966;2023-07-20T07:33:27;6.15;;;3.00;;
71253;SDS011;59019;47.638;18.966;2023-07-20T07:36:13;7.83;;;3.33;;
71253;SDS011;59019;47.638;18.966;2023-07-20T07:38:58;8.25;;;3.40;;
71253;SDS011;59019;47.638;18.966;2023-07-20T07:41:44;6.78;;;3.30;;
71253;SDS011;59019;47.638;18.966;2023-07-20T07:44:30;8.77;;;3.30;;
71253;SDS011;59019;47.638;18.966;2023-07-20T07:47:16;5.82;;;3.20;;
71253;SDS011;59019;47.638;18.966;2023-07-20T07:50:02;5.88;;;3.17;;
71253;SDS011;59019;47.638;18.966;2023-07-20T07:52:48;6.40;;;3.00;;
71253;SDS011;59019;47.638;18.966;2023-07-20T07:55:34;5.50;;;3.20;;
71253;SDS011;59019;47.638;18.966;2023-07-20T07:58:20;6.32;;;3.10;;
71253;SDS011;59019;47.638;18.966;2023-07-20T08:01:06;6.78;;;3.00;;
71253;SDS011;59019;47.638;18.966;2023-07-20T08:03:52;6.47;;;3.15;;
71253;SDS011;59019;47.638;18.966;2023-07-20T08:06:39;6.20;;;3.22;;
71253;SDS011;59019;47.638;18.966;2023-07-20T08:09:25;5.80;;;2.90;;
71253;SDS011;59019;47.638;18.966;2023-07-20T08:12:11;5.43;;;2.90;;
71253;SDS011;59019;47.638;18.966;2023-07-20T08:14:57;7.90;;;2.90;;
71253;SDS011;59019;47.638;18.966;2023-07-20T08:17:42;5.55;;;2.53;;
71253;SDS011;59019;47.638;18.966;2023-07-20T08:20:31;7.50;;;3.03;;
71253;SDS011;59019;47.638;18.966;2023-07-20T08:23:17;9.45;;;3.15;;
71253;SDS011;59019;47.638;18.966;2023-07-20T08:26:03;6.68;;;3.00;;
71253;SDS011;59019;47.638;18.966;2023-07-20T08:28:49;7.00;;;3.15;;
71253;SDS011;59019;47.638;18.966;2023-07-20T08:31:35;6.75;;;3.10;;
71253;SDS011;59019;47.638;18.966;2023-07-20T08:34:21;6.27;;;3.00;;
71253;SDS011;59019;47.638;18.966;2023-07-20T08:37:07;5.53;;;2.85;;
71253;SDS011;59019;47.638;18.966;2023-07-20T08:39:55;5.65;;;2.75;;
71253;SDS011;59019;47.638;18.966;2023-07-20T08:42:41;6.85;;;2.50;;
71253;SDS011;59019;47.638;18.966;2023-07-20T08:45:28;6.60;;;2.67;;
71253;SDS011;59019;47.638;18.966;2023-07-20T08:48:17;5.25;;;2.50;;
71253;SDS011;59019;47.638;18.966;2023-07-20T08:51:04;6.00;;;2.70;;
71253;SDS011;59019;47.638;18.966;2023-07-20T08:53:50;5.80;;;3.00;;
71253;SDS011;59019;47.638;18.966;2023-07-20T08:56:37;6.95;;;2.70;;
71253;SDS011;59019;47.638;18.966;2023-07-20T08:59:23;8.45;;;2.85;;
71253;SDS011;59019;47.638;18.966;2023-07-20T09:02:11;5.77;;;2.80;;
71253;SDS011;59019;47.638;18.966;2023-07-20T09:05:02;6.60;;;2.70;;
71253;SDS011;59019;47.638;18.966;2023-07-20T09:07:48;5.97;;;2.63;;
71253;SDS011;59019;47.638;18.966;2023-07-20T09:10:34;8.07;;;2.80;;
71253;SDS011;59019;47.638;18.966;2023-07-20T09:13:20;6.18;;;2.97;;
71253;SDS011;59019;47.638;18.966;2023-07-20T09:16:06;5.47;;;2.63;;
71253;SDS011;59019;47.638;18.966;2023-07-20T09:18:52;7.97;;;2.60;;
71253;SDS011;59019;47.638;18.966;2023-07-20T09:21:37;6.97;;;3.03;;
71253;SDS011;59019;47.638;18.966;2023-07-20T09:24:23;6.55;;;2.55;;
71253;SDS011;59019;47.638;18.966;2023-07-20T09:27:10;5.20;;;2.72;;
71253;SDS011;59019;47.638;18.966;2023-07-20T09:29:56;6.95;;;2.85;;
71253;SDS011;59019;47.638;18.966;2023-07-20T09:32:48;7.45;;;2.50;;
71253;SDS011;59019;47.638;18.966;2023-07-20T09:35:36;5.78;;;2.53;;
71253;SDS011;59019;47.638;18.966;2023-07-20T09:38:21;10.05;;;2.80;;
71253;SDS011;59019;47.638;18.966;2023-07-20T09:41:08;5.30;;;2.50;;
71253;SDS011;59019;47.638;18.966;2023-07-20T09:43:58;5.97;;;2.70;;
71253;SDS011;59019;47.638;18.966;2023-07-20T09:46:46;5.60;;;2.70;;
71253;SDS011;59019;47.638;18.966;2023-07-20T09:49:38;9.07;;;2.92;;
71253;SDS011;59019;47.638;18.966;2023-07-20T09:52:27;6.10;;;2.60;;
71253;SDS011;59019;47.638;18.966;2023-07-20T09:55:14;6.25;;;2.70;;
71253;SDS011;59019;47.638;18.966;2023-07-20T09:58:00;6.30;;;2.70;;
71253;SDS011;59019;47.638;18.966;2023-07-20T10:00:47;7.38;;;2.70;;
71253;SDS011;59019;47.638;18.966;2023-07-20T10:03:36;5.93;;;2.80;;
71253;SDS011;59019;47.638;18.966;2023-07-20T10:06:24;7.10;;;2.90;;
71253;SDS011;59019;47.638;18.966;2023-07-20T10:09:11;7.35;;;2.60;;
71253;SDS011;59019;47.638;18.966;2023-07-20T10:12:00;6.22;;;2.65;;
71253;SDS011;59019;47.638;18.966;2023-07-20T10:14:51;6.90;;;2.67;;
71253;SDS011;59019;47.638;18.966;2023-07-20T10:18:17;5.57;;;2.47;;
71253;SDS011;59019;47.638;18.966;2023-07-20T10:21:07;6.60;;;2.15;;
71253;SDS011;59019;47.638;18.966;2023-07-20T10:23:55;6.22;;;2.20;;
71253;SDS011;59019;47.638;18.966;2023-07-20T10:26:41;6.20;;;2.50;;
71253;SDS011;59019;47.638;18.966;2023-07-20T10:29:27;4.95;;;2.50;;
71253;SDS011;59019;47.638;18.966;2023-07-20T10:32:15;7.63;;;2.60;;
71253;SDS011;59019;47.638;18.966;2023-07-20T10:35:01;6.05;;;2.10;;
71253;SDS011;59019;47.638;18.966;2023-07-20T10:38:00;7.15;;;2.30;;
71253;SDS011;59019;47.638;18.966;2023-07-20T10:40:56;7.33;;;2.60;;
71253;SDS011;59019;47.638;18.966;2023-07-20T10:43:45;6.07;;;2.38;;
71253;SDS011;59019;47.638;18.966;2023-07-20T10:46:34;7.18;;;2.47;;
71253;SDS011;59019;47.638;18.966;2023-07-20T10:49:28;6.07;;;2.40;;
71253;SDS011;59019;47.638;18.966;2023-07-20T10:52:14;6.10;;;2.20;;
71253;SDS011;59019;47.638;18.966;2023-07-20T10:55:09;4.55;;;1.98;;
71253;SDS011;59019;47.638;18.966;2023-07-20T10:58:15;6.72;;;2.38;;
71253;SDS011;59019;47.638;18.966;2023-07-20T11:01:01;7.88;;;2.63;;
71253;SDS011;59019;47.638;18.966;2023-07-20T11:03:48;4.63;;;2.10;;
71253;SDS011;59019;47.638;18.966;2023-07-20T11:06:35;5.70;;;2.15;;
71253;SDS011;59019;47.638;18.966;2023-07-20T11:09:23;6.30;;;2.20;;
71253;SDS011;59019;47.638;18.966;2023-07-20T11:12:11;6.07;;;2.03;;
71253;SDS011;59019;47.638;18.966;2023-07-20T11:14:59;4.68;;;2.10;;
71253;SDS011;59019;47.638;18.966;2023-07-20T11:17:44;5.28;;;2.35;;
71253;SDS011;59019;47.638;18.966;2023-07-20T11:20:30;7.17;;;2.23;;
71253;SDS011;59019;47.638;18.966;2023-07-20T11:23:16;5.47;;;2.20;;
71253;SDS011;59019;47.638;18.966;2023-07-20T11:26:02;5.07;;;2.28;;
71253;SDS011;59019;47.638;18.966;2023-07-20T11:28:49;5.82;;;2.13;;
71253;SDS011;59019;47.638;18.966;2023-07-20T11:31:38;6.13;;;2.30;;
71253;SDS011;59019;47.638;18.966;2023-07-20T11:34:24;5.75;;;2.28;;
71253;SDS011;59019;47.638;18.966;2023-07-20T11:37:10;5.17;;;2.40;;
71253;SDS011;59019;47.638;18.966;2023-07-20T11:39:56;6.00;;;2.40;;
71253;SDS011;59019;47.638;18.966;2023-07-20T11:42:42;8.20;;;2.30;;
71253;SDS011;59019;47.638;18.966;2023-07-20T11:45:28;5.30;;;2.10;;
71253;SDS011;59019;47.638;18.966;2023-07-20T11:48:18;5.82;;;2.38;;
71253;SDS011;59019;47.638;18.966;2023-07-20T11:51:04;6.25;;;2.30;;
71253;SDS011;59019;47.638;18.966;2023-07-20T11:53:51;4.93;;;2.13;;
71253;SDS011;59019;47.638;18.966;2023-07-20T11:56:37;5.22;;;2.13;;
71253;SDS011;59019;47.638;18.966;2023-07-20T11:59:26;6.38;;;2.30;;
71253;SDS011;59019;47.638;18.966;2023-07-20T12:02:12;5.50;;;2.30;;
71253;SDS011;59019;47.638;18.966;2023-07-20T12:04:58;5.15;;;2.10;;
71253;SDS011;59019;47.638;18.966;2023-07-20T12:07:44;5.40;;;2.00;;
71253;SDS011;59019;47.638;18.966;2023-07-20T12:10:30;5.63;;;2.00;;
71253;SDS011;59019;47.638;18.966;2023-07-20T12:13:16;6.03;;;2.07;;
71253;SDS011;59019;47.638;18.966;2023-07-20T12:16:13;5.80;;;2.30;;
71253;SDS011;59019;47.638;18.966;2023-07-20T12:19:03;6.73;;;2.40;;
71253;SDS011;59019;47.638;18.966;2023-07-20T12:21:51;4.77;;;2.23;;
71253;SDS011;59019;47.638;18.966;2023-07-20T12:24:44;6.10;;;2.40;;
71253;SDS011;59019;47.638;18.966;2023-07-20T12:27:31;3.93;;;1.90;;
71253;SDS011;59019;47.638;18.966;2023-07-20T12:30:17;5.10;;;2.00;;
71253;SDS011;59019;47.638;18.966;2023-07-20T12:33:03;5.10;;;2.10;;
71253;SDS011;59019;47.638;18.966;2023-07-20T12:35:50;6.30;;;2.35;;
71253;SDS011;59019;47.638;18.966;2023-07-20T12:38:36;5.43;;;2.35;;
71253;SDS011;59019;47.638;18.966;2023-07-20T12:41:23;6.80;;;2.30;;
71253;SDS011;59019;47.638;18.966;2023-07-20T12:44:08;5.38;;;2.25;;
71253;SDS011;59019;47.638;18.966;2023-07-20T12:46:54;4.97;;;1.90;;
71253;SDS011;59019;47.638;18.966;2023-07-20T12:49:40;5.10;;;2.17;;
71253;SDS011;59019;47.638;18.966;2023-07-20T12:52:30;4.40;;;1.85;;
71253;SDS011;59019;47.638;18.966;2023-07-20T12:55:16;4.35;;;1.77;;
71253;SDS011;59019;47.638;18.966;2023-07-20T12:58:02;6.45;;;2.00;;
71253;SDS011;59019;47.638;18.966;2023-07-20T13:00:48;4.80;;;2.00;;
71253;SDS011;59019;47.638;18.966;2023-07-20T13:03:34;4.53;;;2.00;;
71253;SDS011;59019;47.638;18.966;2023-07-20T13:06:20;3.97;;;1.80;;
71253;SDS011;59019;47.638;18.966;2023-07-20T13:09:07;7.40;;;1.98;;
71253;SDS011;59019;47.638;18.966;2023-07-20T13:11:52;5.43;;;2.00;;
71253;SDS011;59019;47.638;18.966;2023-07-20T13:14:38;6.10;;;2.30;;
71253;SDS011;59019;47.638;18.966;2023-07-20T13:17:24;5.95;;;2.17;;
71253;SDS011;59019;47.638;18.966;2023-07-20T13:20:10;5.03;;;1.90;;
71253;SDS011;59019;47.638;18.966;2023-07-20T13:22:56;4.63;;;1.90;;
71253;SDS011;59019;47.638;18.966;2023-07-20T13:25:42;6.40;;;2.20;;
71253;SDS011;59019;47.638;18.966;2023-07-20T13:28:28;4.43;;;2.10;;
71253;SDS011;59019;47.638;18.966;2023-07-20T13:31:14;6.22;;;2.03;;
71253;SDS011;59019;47.638;18.966;2023-07-20T13:33:59;4.95;;;2.08;;
71253;SDS011;59019;47.638;18.966;2023-07-20T13:36:45;6.43;;;2.03;;
71253;SDS011;59019;47.638;18.966;2023-07-20T13:39:31;4.70;;;2.10;;
71253;SDS011;59019;47.638;18.966;2023-07-20T13:42:17;4.97;;;2.22;;
71253;SDS011;59019;47.638;18.966;2023-07-20T13:45:03;5.13;;;1.90;;
71253;SDS011;59019;47.638;18.966;2023-07-20T13:47:50;4.30;;;2.03;;
71253;SDS011;59019;47.638;18.966;2023-07-20T13:50:35;5.95;;;2.10;;
71253;SDS011;59019;47.638;18.966;2023-07-20T13:53:21;4.95;;;2.15;;
71253;SDS011;59019;47.638;18.966;2023-07-20T13:56:07;5.57;;;1.92;;
71253;SDS011;59019;47.638;18.966;2023-07-20T13:58:53;6.43;;;1.90;;
71253;SDS011;59019;47.638;18.966;2023-07-20T14:01:39;4.85;;;2.17;;
71253;SDS011;59019;47.638;18.966;2023-07-20T14:04:25;4.72;;;2.05;;
71253;SDS011;59019;47.638;18.966;2023-07-20T14:07:14;4.40;;;1.90;;
71253;SDS011;59019;47.638;18.966;2023-07-20T14:09:59;4.57;;;2.08;;
71253;SDS011;59019;47.638;18.966;2023-07-20T14:12:45;4.60;;;2.20;;
71253;SDS011;59019;47.638;18.966;2023-07-20T14:15:31;4.47;;;2.00;;
71253;SDS011;59019;47.638;18.966;2023-07-20T14:18:17;5.10;;;1.80;;
71253;SDS011;59019;47.638;18.966;2023-07-20T14:21:03;7.70;;;2.00;;
71253;SDS011;59019;47.638;18.966;2023-07-20T14:23:51;4.55;;;2.10;;
71253;SDS011;59019;47.638;18.966;2023-07-20T14:26:38;5.80;;;2.20;;
71253;SDS011;59019;47.638;18.966;2023-07-20T14:29:24;4.70;;;2.17;;
71253;SDS011;59019;47.638;18.966;2023-07-20T14:32:09;5.00;;;2.00;;
71253;SDS011;59019;47.638;18.966;2023-07-20T14:34:55;4.20;;;1.95;;
71253;SDS011;59019;47.638;18.966;2023-07-20T14:37:41;5.10;;;2.10;;
71253;SDS011;59019;47.638;18.966;2023-07-20T14:40:28;4.70;;;2.08;;
71253;SDS011;59019;47.638;18.966;2023-07-20T14:43:14;4.97;;;2.30;;
71253;SDS011;59019;47.638;18.966;2023-07-20T14:46:00;5.50;;;1.98;;
71253;SDS011;59019;47.638;18.966;2023-07-20T14:48:45;5.95;;;2.00;;
71253;SDS011;59019;47.638;18.966;2023-07-20T14:51:32;5.75;;;1.75;;
71253;SDS011;59019;47.638;18.966;2023-07-20T14:54:18;5.78;;;2.00;;
71253;SDS011;59019;47.638;18.966;2023-07-20T14:57:04;4.10;;;2.00;;
71253;SDS011;59019;47.638;18.966;2023-07-20T14:59:50;4.72;;;1.88;;
71253;SDS011;59019;47.638;18.966;2023-07-20T15:02:36;4.65;;;1.70;;
71253;SDS011;59019;47.638;18.966;2023-07-20T15:05:23;4.90;;;1.90;;
71253;SDS011;59019;47.638;18.966;2023-07-20T15:08:11;3.78;;;1.80;;
71253;SDS011;59019;47.638;18.966;2023-07-20T15:10:57;4.57;;;1.80;;
71253;SDS011;59019;47.638;18.966;2023-07-20T15:13:43;5.20;;;1.90;;
71253;SDS011;59019;47.638;18.966;2023-07-20T15:16:29;4.93;;;1.75;;
71253;SDS011;59019;47.638;18.966;2023-07-20T15:19:15;4.70;;;2.05;;
71253;SDS011;59019;47.638;18.966;2023-07-20T15:22:02;5.72;;;1.90;;
71253;SDS011;59019;47.638;18.966;2023-07-20T15:24:48;5.32;;;1.75;;
71253;SDS011;59019;47.638;18.966;2023-07-20T15:27:34;5.03;;;1.70;;
71253;SDS011;59019;47.638;18.966;2023-07-20T15:30:20;5.05;;;1.90;;
71253;SDS011;59019;47.638;18.966;2023-07-20T15:33:07;5.20;;;1.90;;
71253;SDS011;59019;47.638;18.966;2023-07-20T15:35:52;4.63;;;1.92;;
71253;SDS011;59019;47.638;18.966;2023-07-20T15:38:38;4.95;;;1.80;;
71253;SDS011;59019;47.638;18.966;2023-07-20T15:41:24;4.50;;;1.77;;
71253;SDS011;59019;47.638;18.966;2023-07-20T15:44:11;4.63;;;1.80;;
71253;SDS011;59019;47.638;18.966;2023-07-20T15:46:59;3.70;;;1.92;;
71253;SDS011;59019;47.638;18.966;2023-07-20T15:49:46;5.22;;;2.15;;
71253;SDS011;59019;47.638;18.966;2023-07-20T15:52:33;4.18;;;1.98;;
71253;SDS011;59019;47.638;18.966;2023-07-20T15:55:20;5.28;;;1.80;;
71253;SDS011;59019;47.638;18.966;2023-07-20T15:58:06;6.43;;;2.10;;
71253;SDS011;59019;47.638;18.966;2023-07-20T16:00:55;4.80;;;1.95;;
71253;SDS011;59019;47.638;18.966;2023-07-20T16:03:42;4.95;;;1.80;;
71253;SDS011;59019;47.638;18.966;2023-07-20T16:06:27;5.00;;;2.10;;
71253;SDS011;59019;47.638;18.966;2023-07-20T16:09:13;5.65;;;2.10;;
71253;SDS011;59019;47.638;18.966;2023-07-20T16:11:59;6.47;;;2.03;;
71253;SDS011;59019;47.638;18.966;2023-07-20T16:14:45;5.55;;;1.92;;
71253;SDS011;59019;47.638;18.966;2023-07-20T16:17:31;6.17;;;2.10;;
71253;SDS011;59019;47.638;18.966;2023-07-20T16:20:17;6.30;;;2.20;;
71253;SDS011;59019;47.638;18.966;2023-07-20T16:23:03;5.90;;;2.00;;
71253;SDS011;59019;47.638;18.966;2023-07-20T16:25:51;4.97;;;2.10;;
71253;SDS011;59019;47.638;18.966;2023-07-20T16:28:37;5.20;;;2.07;;
71253;SDS011;59019;47.638;18.966;2023-07-20T16:31:23;5.03;;;2.00;;
71253;SDS011;59019;47.638;18.966;2023-07-20T16:34:09;5.88;;;2.00;;
71253;SDS011;59019;47.638;18.966;2023-07-20T16:36:54;5.30;;;1.93;;